sensor_id;sensor_type;location;lat;lon;timestamp;P1;durP1;ratioP1;P2;durP2;ratioP2
13588;SDS011;6865;52.552;13.434;2023-02-13T00:01:54;18.00;;;10.20;;
13588;SDS011;6865;52.552;13.434;2023-02-13T00:04:21;17.13;;;10.53;;
13588;SDS011;6865;52.552;13.434;2023-02-13T00:06:48;15.83;;;9.70;;
13588;SDS011;6865;52.552;13.434;2023-02-13T00:09:14;16.23;;;9.77;;
13588;SDS011;6865;52.552;13.434;2023-02-13T00:11:41;17.80;;;10.33;;
13588;SDS011;6865;52.552;13.434;2023-02-13T00:14:07;15.23;;;9.67;;
13588;SDS011;6865;52.552;13.434;2023-02-13T00:16:34;15.57;;;9.37;;
13588;SDS011;6865;52.552;13.434;2023-02-13T00:19:01;16.90;;;10.23;;
13588;SDS011;6865;52.552;13.434;2023-02-13T00:21:28;14.53;;;9.40;;
13588;SDS011;6865;52.552;13.434;2023-02-13T00:23:54;14.73;;;9.47;;
13588;SDS011;6865;52.552;13.434;2023-02-13T00:26:21;12.60;;;8.90;;
13588;SDS011;6865;52.552;13.434;2023-02-13T00:28:47;12.07;;;8.40;;
13588;SDS011;6865;52.552;13.434;2023-02-13T00:31:15;12.37;;;8.27;;
13588;SDS011;6865;52.552;13.434;2023-02-13T00:33:43;12.60;;;7.13;;
13588;SDS011;6865;52.552;13.434;2023-02-13T00:36:12;10.97;;;6.90;;
13588;SDS011;6865;52.552;13.434;2023-02-13T00:38:43;9.33;;;6.23;;
13588;SDS011;6865;52.552;13.434;2023-02-13T00:41:10;8.70;;;5.33;;
13588;SDS011;6865;52.552;13.434;2023-02-13T00:43:38;7.77;;;4.80;;
13588;SDS011;6865;52.552;13.434;2023-02-13T00:46:05;8.60;;;4.87;;
13588;SDS011;6865;52.552;13.434;2023-02-13T00:48:32;9.27;;;4.30;;
13588;SDS011;6865;52.552;13.434;2023-02-13T00:50:59;5.60;;;3.97;;
13588;SDS011;6865;52.552;13.434;2023-02-13T00:53:26;5.73;;;3.90;;
13588;SDS011;6865;52.552;13.434;2023-02-13T00:55:53;4.67;;;3.50;;
13588;SDS011;6865;52.552;13.434;2023-02-13T00:58:20;6.43;;;3.80;;
13588;SDS011;6865;52.552;13.434;2023-02-13T01:00:48;5.53;;;3.73;;
13588;SDS011;6865;52.552;13.434;2023-02-13T01:03:17;8.47;;;4.03;;
13588;SDS011;6865;52.552;13.434;2023-02-13T01:05:44;5.57;;;3.73;;
13588;SDS011;6865;52.552;13.434;2023-02-13T01:08:11;8.83;;;3.77;;
13588;SDS011;6865;52.552;13.434;2023-02-13T01:10:39;5.30;;;3.70;;
13588;SDS011;6865;52.552;13.434;2023-02-13T01:13:06;7.67;;;4.47;;
13588;SDS011;6865;52.552;13.434;2023-02-13T01:15:34;5.83;;;3.90;;
13588;SDS011;6865;52.552;13.434;2023-02-13T01:18:02;5.47;;;3.50;;
13588;SDS011;6865;52.552;13.434;2023-02-13T01:20:28;6.13;;;3.30;;
13588;SDS011;6865;52.552;13.434;2023-02-13T01:22:56;7.10;;;3.57;;
13588;SDS011;6865;52.552;13.434;2023-02-13T01:25:23;7.20;;;3.77;;
13588;SDS011;6865;52.552;13.434;2023-02-13T01:27:50;4.77;;;3.30;;
13588;SDS011;6865;52.552;13.434;2023-02-13T01:30:17;5.07;;;3.40;;
13588;SDS011;6865;52.552;13.434;2023-02-13T01:32:44;5.33;;;3.37;;
13588;SDS011;6865;52.552;13.434;2023-02-13T01:35:12;4.33;;;3.27;;
13588;SDS011;6865;52.552;13.434;2023-02-13T01:37:39;6.00;;;3.60;;
13588;SDS011;6865;52.552;13.434;2023-02-13T01:40:07;4.93;;;3.00;;
13588;SDS011;6865;52.552;13.434;2023-02-13T01:42:37;5.37;;;2.90;;
13588;SDS011;6865;52.552;13.434;2023-02-13T01:45:12;6.17;;;2.97;;
13588;SDS011;6865;52.552;13.434;2023-02-13T01:47:56;4.80;;;3.30;;
13588;SDS011;6865;52.552;13.434;2023-02-13T01:53:05;3.70;;;2.70;;
13588;SDS011;6865;52.552;13.434;2023-02-13T01:55:47;4.00;;;2.70;;
13588;SDS011;6865;52.552;13.434;2023-02-13T01:58:20;5.73;;;3.33;;
13588;SDS011;6865;52.552;13.434;2023-02-13T02:00:50;4.17;;;2.97;;
13588;SDS011;6865;52.552;13.434;2023-02-13T02:03:21;5.67;;;3.30;;
13588;SDS011;6865;52.552;13.434;2023-02-13T02:05:56;3.80;;;3.00;;
13588;SDS011;6865;52.552;13.434;2023-02-13T02:08:24;4.30;;;2.90;;
13588;SDS011;6865;52.552;13.434;2023-02-13T02:10:52;4.07;;;2.90;;
13588;SDS011;6865;52.552;13.434;2023-02-13T02:13:21;4.00;;;2.97;;
13588;SDS011;6865;52.552;13.434;2023-02-13T02:15:48;4.77;;;3.10;;
13588;SDS011;6865;52.552;13.434;2023-02-13T02:18:16;5.30;;;2.87;;
13588;SDS011;6865;52.552;13.434;2023-02-13T02:20:55;4.87;;;3.30;;
13588;SDS011;6865;52.552;13.434;2023-02-13T02:23:46;4.80;;;2.87;;
13588;SDS011;6865;52.552;13.434;2023-02-13T02:26:33;4.67;;;3.50;;
13588;SDS011;6865;52.552;13.434;2023-02-13T02:32:07;4.63;;;3.33;;
13588;SDS011;6865;52.552;13.434;2023-02-13T02:37:30;5.97;;;3.90;;
13588;SDS011;6865;52.552;13.434;2023-02-13T02:40:23;6.40;;;3.97;;
13588;SDS011;6865;52.552;13.434;2023-02-13T02:42:59;3.77;;;3.20;;
13588;SDS011;6865;52.552;13.434;2023-02-13T02:45:39;5.80;;;3.67;;
13588;SDS011;6865;52.552;13.434;2023-02-13T02:48:28;5.93;;;4.00;;
13588;SDS011;6865;52.552;13.434;2023-02-13T02:51:39;4.20;;;3.70;;
13588;SDS011;6865;52.552;13.434;2023-02-13T02:54:21;6.40;;;4.13;;
13588;SDS011;6865;52.552;13.434;2023-02-13T02:57:26;5.47;;;3.70;;
13588;SDS011;6865;52.552;13.434;2023-02-13T03:00:14;4.70;;;3.77;;
13588;SDS011;6865;52.552;13.434;2023-02-13T03:03:02;6.47;;;4.27;;
13588;SDS011;6865;52.552;13.434;2023-02-13T03:06:00;5.97;;;4.10;;
13588;SDS011;6865;52.552;13.434;2023-02-13T03:08:39;6.07;;;4.20;;
13588;SDS011;6865;52.552;13.434;2023-02-13T03:11:27;5.57;;;4.43;;
13588;SDS011;6865;52.552;13.434;2023-02-13T03:14:14;6.43;;;4.17;;
13588;SDS011;6865;52.552;13.434;2023-02-13T03:16:45;8.10;;;4.73;;
13588;SDS011;6865;52.552;13.434;2023-02-13T03:19:42;7.73;;;4.43;;
13588;SDS011;6865;52.552;13.434;2023-02-13T03:28:30;6.27;;;4.60;;
13588;SDS011;6865;52.552;13.434;2023-02-13T03:31:41;6.57;;;4.87;;
13588;SDS011;6865;52.552;13.434;2023-02-13T03:34:20;7.37;;;4.93;;
13588;SDS011;6865;52.552;13.434;2023-02-13T03:36:56;6.77;;;4.60;;
13588;SDS011;6865;52.552;13.434;2023-02-13T03:39:59;8.97;;;5.23;;
13588;SDS011;6865;52.552;13.434;2023-02-13T03:43:02;5.30;;;4.60;;
13588;SDS011;6865;52.552;13.434;2023-02-13T03:45:36;5.77;;;4.30;;
13588;SDS011;6865;52.552;13.434;2023-02-13T03:48:20;7.20;;;4.47;;
13588;SDS011;6865;52.552;13.434;2023-02-13T03:51:11;5.37;;;4.20;;
13588;SDS011;6865;52.552;13.434;2023-02-13T03:53:44;8.00;;;4.67;;
13588;SDS011;6865;52.552;13.434;2023-02-13T03:56:15;7.00;;;5.13;;
13588;SDS011;6865;52.552;13.434;2023-02-13T03:59:04;5.43;;;4.43;;
13588;SDS011;6865;52.552;13.434;2023-02-13T04:01:43;7.77;;;4.73;;
13588;SDS011;6865;52.552;13.434;2023-02-13T04:04:23;7.20;;;5.17;;
13588;SDS011;6865;52.552;13.434;2023-02-13T04:07:11;8.33;;;5.33;;
13588;SDS011;6865;52.552;13.434;2023-02-13T04:09:55;9.23;;;5.40;;
13588;SDS011;6865;52.552;13.434;2023-02-13T04:15:36;7.03;;;5.23;;
13588;SDS011;6865;52.552;13.434;2023-02-13T04:18:09;8.67;;;5.73;;
13588;SDS011;6865;52.552;13.434;2023-02-13T04:20:43;7.67;;;5.40;;
13588;SDS011;6865;52.552;13.434;2023-02-13T04:23:09;7.90;;;6.00;;
13588;SDS011;6865;52.552;13.434;2023-02-13T04:25:38;6.70;;;5.33;;
13588;SDS011;6865;52.552;13.434;2023-02-13T04:28:08;6.63;;;5.67;;
13588;SDS011;6865;52.552;13.434;2023-02-13T04:30:35;8.40;;;5.77;;
13588;SDS011;6865;52.552;13.434;2023-02-13T04:33:02;9.00;;;5.93;;
13588;SDS011;6865;52.552;13.434;2023-02-13T04:35:29;8.03;;;6.20;;
13588;SDS011;6865;52.552;13.434;2023-02-13T04:37:55;9.47;;;6.50;;
13588;SDS011;6865;52.552;13.434;2023-02-13T04:40:22;7.93;;;6.13;;
13588;SDS011;6865;52.552;13.434;2023-02-13T04:42:49;9.23;;;6.50;;
13588;SDS011;6865;52.552;13.434;2023-02-13T04:45:15;8.23;;;6.53;;
13588;SDS011;6865;52.552;13.434;2023-02-13T04:47:42;8.87;;;6.93;;
13588;SDS011;6865;52.552;13.434;2023-02-13T04:50:14;9.50;;;7.53;;
13588;SDS011;6865;52.552;13.434;2023-02-13T04:52:41;9.93;;;6.57;;
13588;SDS011;6865;52.552;13.434;2023-02-13T04:55:07;11.07;;;8.27;;
13588;SDS011;6865;52.552;13.434;2023-02-13T04:57:34;11.57;;;8.40;;
13588;SDS011;6865;52.552;13.434;2023-02-13T05:00:01;12.87;;;9.00;;
13588;SDS011;6865;52.552;13.434;2023-02-13T05:02:29;12.40;;;9.03;;
13588;SDS011;6865;52.552;13.434;2023-02-13T05:04:56;14.97;;;9.83;;
13588;SDS011;6865;52.552;13.434;2023-02-13T05:07:23;11.50;;;8.50;;
13588;SDS011;6865;52.552;13.434;2023-02-13T05:09:50;12.10;;;8.80;;
13588;SDS011;6865;52.552;13.434;2023-02-13T05:12:16;12.60;;;8.40;;
13588;SDS011;6865;52.552;13.434;2023-02-13T05:14:43;11.80;;;8.33;;
13588;SDS011;6865;52.552;13.434;2023-02-13T05:17:09;12.23;;;8.60;;
13588;SDS011;6865;52.552;13.434;2023-02-13T05:19:36;13.03;;;8.60;;
13588;SDS011;6865;52.552;13.434;2023-02-13T05:22:03;13.37;;;8.80;;
13588;SDS011;6865;52.552;13.434;2023-02-13T05:24:48;13.40;;;8.50;;
13588;SDS011;6865;52.552;13.434;2023-02-13T05:27:15;11.40;;;7.87;;
13588;SDS011;6865;52.552;13.434;2023-02-13T05:29:41;12.30;;;7.90;;
13588;SDS011;6865;52.552;13.434;2023-02-13T05:32:08;10.27;;;7.53;;
13588;SDS011;6865;52.552;13.434;2023-02-13T05:34:34;11.97;;;7.50;;
13588;SDS011;6865;52.552;13.434;2023-02-13T05:37:01;12.17;;;8.00;;
13588;SDS011;6865;52.552;13.434;2023-02-13T05:39:28;10.60;;;7.00;;
13588;SDS011;6865;52.552;13.434;2023-02-13T05:41:54;9.73;;;7.10;;
13588;SDS011;6865;52.552;13.434;2023-02-13T05:44:21;9.43;;;6.80;;
13588;SDS011;6865;52.552;13.434;2023-02-13T05:46:48;11.20;;;7.13;;
13588;SDS011;6865;52.552;13.434;2023-02-13T05:49:14;10.37;;;7.23;;
13588;SDS011;6865;52.552;13.434;2023-02-13T05:51:41;10.50;;;7.53;;
13588;SDS011;6865;52.552;13.434;2023-02-13T05:54:08;9.50;;;7.00;;
13588;SDS011;6865;52.552;13.434;2023-02-13T05:56:35;11.80;;;6.97;;
13588;SDS011;6865;52.552;13.434;2023-02-13T05:59:01;9.97;;;6.97;;
13588;SDS011;6865;52.552;13.434;2023-02-13T06:01:28;9.67;;;7.10;;
13588;SDS011;6865;52.552;13.434;2023-02-13T06:03:55;8.73;;;6.60;;
13588;SDS011;6865;52.552;13.434;2023-02-13T06:06:24;9.97;;;6.90;;
13588;SDS011;6865;52.552;13.434;2023-02-13T06:08:51;8.50;;;6.27;;
13588;SDS011;6865;52.552;13.434;2023-02-13T06:11:18;12.30;;;6.40;;
13588;SDS011;6865;52.552;13.434;2023-02-13T06:13:45;10.23;;;6.83;;
13588;SDS011;6865;52.552;13.434;2023-02-13T06:16:12;10.60;;;6.13;;
13588;SDS011;6865;52.552;13.434;2023-02-13T06:18:39;9.40;;;6.73;;
13588;SDS011;6865;52.552;13.434;2023-02-13T06:21:06;8.47;;;6.87;;
13588;SDS011;6865;52.552;13.434;2023-02-13T06:23:33;10.20;;;6.53;;
13588;SDS011;6865;52.552;13.434;2023-02-13T06:26:01;8.10;;;6.57;;
13588;SDS011;6865;52.552;13.434;2023-02-13T06:28:29;7.63;;;6.20;;
13588;SDS011;6865;52.552;13.434;2023-02-13T06:30:55;8.73;;;6.40;;
13588;SDS011;6865;52.552;13.434;2023-02-13T06:33:23;10.13;;;6.80;;
13588;SDS011;6865;52.552;13.434;2023-02-13T06:35:49;8.07;;;6.40;;
13588;SDS011;6865;52.552;13.434;2023-02-13T06:38:16;8.23;;;6.17;;
13588;SDS011;6865;52.552;13.434;2023-02-13T06:40:44;9.00;;;6.40;;
13588;SDS011;6865;52.552;13.434;2023-02-13T06:43:11;9.23;;;6.40;;
13588;SDS011;6865;52.552;13.434;2023-02-13T06:45:39;9.10;;;6.97;;
13588;SDS011;6865;52.552;13.434;2023-02-13T06:48:06;8.47;;;6.60;;
13588;SDS011;6865;52.552;13.434;2023-02-13T06:50:33;10.60;;;7.53;;
13588;SDS011;6865;52.552;13.434;2023-02-13T06:53:00;10.70;;;7.27;;
13588;SDS011;6865;52.552;13.434;2023-02-13T06:55:26;11.70;;;7.90;;
13588;SDS011;6865;52.552;13.434;2023-02-13T06:57:53;10.33;;;7.37;;
13588;SDS011;6865;52.552;13.434;2023-02-13T07:00:20;10.87;;;7.40;;
13588;SDS011;6865;52.552;13.434;2023-02-13T07:02:47;8.33;;;6.50;;
13588;SDS011;6865;52.552;13.434;2023-02-13T07:05:13;8.00;;;6.57;;
13588;SDS011;6865;52.552;13.434;2023-02-13T07:07:40;9.23;;;6.30;;
13588;SDS011;6865;52.552;13.434;2023-02-13T07:10:09;10.50;;;6.73;;
13588;SDS011;6865;52.552;13.434;2023-02-13T07:12:37;9.03;;;6.37;;
13588;SDS011;6865;52.552;13.434;2023-02-13T07:15:04;9.13;;;6.60;;
13588;SDS011;6865;52.552;13.434;2023-02-13T07:17:31;10.00;;;6.50;;
13588;SDS011;6865;52.552;13.434;2023-02-13T07:19:59;9.47;;;6.90;;
13588;SDS011;6865;52.552;13.434;2023-02-13T07:22:25;8.67;;;7.17;;
13588;SDS011;6865;52.552;13.434;2023-02-13T07:24:52;10.17;;;7.30;;
13588;SDS011;6865;52.552;13.434;2023-02-13T07:27:18;10.07;;;6.80;;
13588;SDS011;6865;52.552;13.434;2023-02-13T07:29:45;9.63;;;6.57;;
13588;SDS011;6865;52.552;13.434;2023-02-13T07:32:12;9.17;;;7.40;;
13588;SDS011;6865;52.552;13.434;2023-02-13T07:34:38;8.83;;;6.93;;
13588;SDS011;6865;52.552;13.434;2023-02-13T07:37:26;9.90;;;6.43;;
13588;SDS011;6865;52.552;13.434;2023-02-13T07:39:54;7.60;;;6.10;;
13588;SDS011;6865;52.552;13.434;2023-02-13T07:42:20;8.67;;;6.10;;
13588;SDS011;6865;52.552;13.434;2023-02-13T07:44:47;8.83;;;6.47;;
13588;SDS011;6865;52.552;13.434;2023-02-13T07:47:14;8.97;;;6.67;;
13588;SDS011;6865;52.552;13.434;2023-02-13T07:49:42;10.07;;;6.10;;
13588;SDS011;6865;52.552;13.434;2023-02-13T07:52:09;9.50;;;6.40;;
13588;SDS011;6865;52.552;13.434;2023-02-13T07:54:36;8.10;;;5.67;;
13588;SDS011;6865;52.552;13.434;2023-02-13T07:57:12;7.63;;;6.07;;
13588;SDS011;6865;52.552;13.434;2023-02-13T07:59:39;10.27;;;6.40;;
13588;SDS011;6865;52.552;13.434;2023-02-13T08:02:09;8.37;;;6.10;;
13588;SDS011;6865;52.552;13.434;2023-02-13T08:04:38;8.53;;;6.13;;
13588;SDS011;6865;52.552;13.434;2023-02-13T08:07:05;6.93;;;5.33;;
13588;SDS011;6865;52.552;13.434;2023-02-13T08:09:32;7.13;;;5.83;;
13588;SDS011;6865;52.552;13.434;2023-02-13T08:12:17;7.90;;;5.93;;
13588;SDS011;6865;52.552;13.434;2023-02-13T08:14:44;8.30;;;5.87;;
13588;SDS011;6865;52.552;13.434;2023-02-13T08:17:10;8.17;;;5.53;;
13588;SDS011;6865;52.552;13.434;2023-02-13T08:19:37;8.17;;;5.87;;
13588;SDS011;6865;52.552;13.434;2023-02-13T08:22:04;8.07;;;5.60;;
13588;SDS011;6865;52.552;13.434;2023-02-13T08:24:31;9.17;;;6.20;;
13588;SDS011;6865;52.552;13.434;2023-02-13T08:26:58;7.47;;;5.47;;
13588;SDS011;6865;52.552;13.434;2023-02-13T08:29:24;9.70;;;5.90;;
13588;SDS011;6865;52.552;13.434;2023-02-13T08:31:51;7.13;;;5.47;;
13588;SDS011;6865;52.552;13.434;2023-02-13T08:34:18;7.60;;;5.80;;
13588;SDS011;6865;52.552;13.434;2023-02-13T08:36:44;9.27;;;6.17;;
13588;SDS011;6865;52.552;13.434;2023-02-13T08:39:11;8.27;;;6.30;;
13588;SDS011;6865;52.552;13.434;2023-02-13T08:41:37;8.30;;;6.57;;
13588;SDS011;6865;52.552;13.434;2023-02-13T08:44:04;8.73;;;5.93;;
13588;SDS011;6865;52.552;13.434;2023-02-13T08:46:31;11.30;;;6.23;;
13588;SDS011;6865;52.552;13.434;2023-02-13T08:48:57;7.63;;;6.00;;
13588;SDS011;6865;52.552;13.434;2023-02-13T08:51:24;7.03;;;5.40;;
13588;SDS011;6865;52.552;13.434;2023-02-13T08:53:51;9.77;;;6.03;;
13588;SDS011;6865;52.552;13.434;2023-02-13T08:56:17;8.00;;;5.73;;
13588;SDS011;6865;52.552;13.434;2023-02-13T08:58:46;9.80;;;5.93;;
13588;SDS011;6865;52.552;13.434;2023-02-13T09:01:15;7.90;;;5.87;;
13588;SDS011;6865;52.552;13.434;2023-02-13T09:03:42;11.80;;;6.37;;
13588;SDS011;6865;52.552;13.434;2023-02-13T09:06:09;10.10;;;6.60;;
13588;SDS011;6865;52.552;13.434;2023-02-13T09:08:35;11.50;;;6.63;;
13588;SDS011;6865;52.552;13.434;2023-02-13T09:11:02;9.73;;;6.30;;
13588;SDS011;6865;52.552;13.434;2023-02-13T09:13:32;13.10;;;7.60;;
13588;SDS011;6865;52.552;13.434;2023-02-13T09:16:03;12.57;;;7.77;;
13588;SDS011;6865;52.552;13.434;2023-02-13T09:18:31;14.00;;;8.83;;
13588;SDS011;6865;52.552;13.434;2023-02-13T09:20:59;10.57;;;8.10;;
13588;SDS011;6865;52.552;13.434;2023-02-13T09:23:29;10.40;;;7.40;;
13588;SDS011;6865;52.552;13.434;2023-02-13T09:25:58;10.87;;;7.40;;
13588;SDS011;6865;52.552;13.434;2023-02-13T09:28:29;9.43;;;6.90;;
13588;SDS011;6865;52.552;13.434;2023-02-13T09:30:56;10.23;;;7.17;;
13588;SDS011;6865;52.552;13.434;2023-02-13T09:33:24;10.77;;;7.73;;
13588;SDS011;6865;52.552;13.434;2023-02-13T09:35:51;11.57;;;7.63;;
13588;SDS011;6865;52.552;13.434;2023-02-13T09:38:18;9.97;;;7.13;;
13588;SDS011;6865;52.552;13.434;2023-02-13T09:40:54;10.27;;;7.70;;
13588;SDS011;6865;52.552;13.434;2023-02-13T09:43:29;10.00;;;6.57;;
13588;SDS011;6865;52.552;13.434;2023-02-13T09:46:08;12.23;;;7.67;;
13588;SDS011;6865;52.552;13.434;2023-02-13T09:48:41;9.90;;;7.17;;
13588;SDS011;6865;52.552;13.434;2023-02-13T09:51:18;9.37;;;7.43;;
13588;SDS011;6865;52.552;13.434;2023-02-13T09:53:51;12.03;;;7.73;;
13588;SDS011;6865;52.552;13.434;2023-02-13T09:56:26;9.90;;;7.30;;
13588;SDS011;6865;52.552;13.434;2023-02-13T09:59:31;9.87;;;7.33;;
13588;SDS011;6865;52.552;13.434;2023-02-13T10:02:27;14.47;;;7.77;;
13588;SDS011;6865;52.552;13.434;2023-02-13T10:05:22;11.03;;;6.70;;
13588;SDS011;6865;52.552;13.434;2023-02-13T10:11:05;10.33;;;7.53;;
13588;SDS011;6865;52.552;13.434;2023-02-13T10:13:55;10.83;;;7.77;;
13588;SDS011;6865;52.552;13.434;2023-02-13T10:16:35;12.97;;;8.07;;
13588;SDS011;6865;52.552;13.434;2023-02-13T10:19:12;10.00;;;7.43;;
13588;SDS011;6865;52.552;13.434;2023-02-13T10:22:14;10.83;;;7.93;;
13588;SDS011;6865;52.552;13.434;2023-02-13T10:24:47;10.87;;;7.17;;
13588;SDS011;6865;52.552;13.434;2023-02-13T10:27:31;12.07;;;7.73;;
13588;SDS011;6865;52.552;13.434;2023-02-13T10:30:02;11.97;;;7.63;;
13588;SDS011;6865;52.552;13.434;2023-02-13T10:32:42;12.53;;;8.00;;
13588;SDS011;6865;52.552;13.434;2023-02-13T10:35:21;11.80;;;7.90;;
13588;SDS011;6865;52.552;13.434;2023-02-13T10:37:53;10.67;;;8.03;;
13588;SDS011;6865;52.552;13.434;2023-02-13T10:40:23;11.00;;;7.83;;
13588;SDS011;6865;52.552;13.434;2023-02-13T10:43:07;11.07;;;8.37;;
13588;SDS011;6865;52.552;13.434;2023-02-13T10:45:42;10.43;;;7.30;;
13588;SDS011;6865;52.552;13.434;2023-02-13T10:48:28;10.93;;;7.43;;
13588;SDS011;6865;52.552;13.434;2023-02-13T10:51:13;11.90;;;7.67;;
13588;SDS011;6865;52.552;13.434;2023-02-13T10:56:45;10.20;;;7.47;;
13588;SDS011;6865;52.552;13.434;2023-02-13T11:02:26;11.07;;;8.13;;
13588;SDS011;6865;52.552;13.434;2023-02-13T11:04:59;12.23;;;8.23;;
13588;SDS011;6865;52.552;13.434;2023-02-13T11:07:27;12.33;;;8.00;;
13588;SDS011;6865;52.552;13.434;2023-02-13T11:09:57;11.03;;;7.90;;
13588;SDS011;6865;52.552;13.434;2023-02-13T11:12:27;11.03;;;7.90;;
13588;SDS011;6865;52.552;13.434;2023-02-13T11:15:05;13.00;;;9.13;;
13588;SDS011;6865;52.552;13.434;2023-02-13T11:17:44;12.67;;;8.30;;
13588;SDS011;6865;52.552;13.434;2023-02-13T11:20:28;11.60;;;8.40;;
13588;SDS011;6865;52.552;13.434;2023-02-13T11:22:56;12.13;;;9.00;;
13588;SDS011;6865;52.552;13.434;2023-02-13T11:26:02;12.40;;;8.93;;
13588;SDS011;6865;52.552;13.434;2023-02-13T11:28:37;13.20;;;9.57;;
13588;SDS011;6865;52.552;13.434;2023-02-13T11:31:26;14.43;;;9.87;;
13588;SDS011;6865;52.552;13.434;2023-02-13T11:33:55;14.70;;;9.80;;
13588;SDS011;6865;52.552;13.434;2023-02-13T11:36:25;14.80;;;9.80;;
13588;SDS011;6865;52.552;13.434;2023-02-13T11:39:39;15.40;;;9.93;;
13588;SDS011;6865;52.552;13.434;2023-02-13T11:41:47;14.70;;;9.80;;
13588;SDS011;6865;52.552;13.434;2023-02-13T11:44:24;13.73;;;9.87;;
13588;SDS011;6865;52.552;13.434;2023-02-13T11:46:57;14.57;;;10.30;;
13588;SDS011;6865;52.552;13.434;2023-02-13T11:49:35;15.23;;;10.13;;
13588;SDS011;6865;52.552;13.434;2023-02-13T11:52:06;15.30;;;10.90;;
13588;SDS011;6865;52.552;13.434;2023-02-13T11:54:59;14.47;;;10.03;;
13588;SDS011;6865;52.552;13.434;2023-02-13T11:59:58;13.77;;;10.50;;
13588;SDS011;6865;52.552;13.434;2023-02-13T12:02:30;15.27;;;11.30;;
13588;SDS011;6865;52.552;13.434;2023-02-13T12:05:21;12.67;;;10.07;;
13588;SDS011;6865;52.552;13.434;2023-02-13T12:07:50;17.27;;;11.00;;
13588;SDS011;6865;52.552;13.434;2023-02-13T12:10:21;15.57;;;10.60;;
13588;SDS011;6865;52.552;13.434;2023-02-13T12:15:29;16.37;;;11.50;;
13588;SDS011;6865;52.552;13.434;2023-02-13T12:18:02;17.63;;;11.67;;
13588;SDS011;6865;52.552;13.434;2023-02-13T12:24:00;17.60;;;12.70;;
13588;SDS011;6865;52.552;13.434;2023-02-13T12:26:49;16.80;;;11.80;;
13588;SDS011;6865;52.552;13.434;2023-02-13T12:29:33;17.47;;;11.57;;
13588;SDS011;6865;52.552;13.434;2023-02-13T12:32:37;18.07;;;11.50;;
13588;SDS011;6865;52.552;13.434;2023-02-13T12:35:40;16.33;;;11.67;;
13588;SDS011;6865;52.552;13.434;2023-02-13T12:38:26;16.83;;;11.50;;
13588;SDS011;6865;52.552;13.434;2023-02-13T12:41:12;17.27;;;11.87;;
13588;SDS011;6865;52.552;13.434;2023-02-13T12:46:55;18.20;;;12.13;;
13588;SDS011;6865;52.552;13.434;2023-02-13T12:49:51;17.13;;;11.77;;
13588;SDS011;6865;52.552;13.434;2023-02-13T12:52:44;16.83;;;11.63;;
13588;SDS011;6865;52.552;13.434;2023-02-13T13:01:48;17.60;;;12.73;;
13588;SDS011;6865;52.552;13.434;2023-02-13T13:07:44;19.67;;;12.50;;
13588;SDS011;6865;52.552;13.434;2023-02-13T13:10:41;18.60;;;11.50;;
13588;SDS011;6865;52.552;13.434;2023-02-13T13:16:23;18.73;;;12.23;;
13588;SDS011;6865;52.552;13.434;2023-02-13T13:19:08;16.60;;;12.20;;
13588;SDS011;6865;52.552;13.434;2023-02-13T13:21:59;18.43;;;12.03;;
13588;SDS011;6865;52.552;13.434;2023-02-13T13:24:32;17.47;;;12.13;;
13588;SDS011;6865;52.552;13.434;2023-02-13T13:27:10;16.43;;;11.90;;
13588;SDS011;6865;52.552;13.434;2023-02-13T13:30:00;18.07;;;11.80;;
13588;SDS011;6865;52.552;13.434;2023-02-13T13:32:47;19.53;;;11.60;;
13588;SDS011;6865;52.552;13.434;2023-02-13T13:35:19;18.13;;;11.60;;
13588;SDS011;6865;52.552;13.434;2023-02-13T13:38:10;17.73;;;11.57;;
13588;SDS011;6865;52.552;13.434;2023-02-13T13:40:49;18.13;;;11.80;;
13588;SDS011;6865;52.552;13.434;2023-02-13T13:44:15;15.70;;;12.00;;
13588;SDS011;6865;52.552;13.434;2023-02-13T13:49:26;17.97;;;12.03;;
13588;SDS011;6865;52.552;13.434;2023-02-13T13:52:09;18.73;;;11.47;;
13588;SDS011;6865;52.552;13.434;2023-02-13T13:54:48;17.30;;;11.33;;
13588;SDS011;6865;52.552;13.434;2023-02-13T13:58:04;17.83;;;12.30;;
13588;SDS011;6865;52.552;13.434;2023-02-13T14:02:45;16.60;;;11.57;;
13588;SDS011;6865;52.552;13.434;2023-02-13T14:05:27;18.60;;;12.13;;
13588;SDS011;6865;52.552;13.434;2023-02-13T14:07:56;16.93;;;11.00;;
13588;SDS011;6865;52.552;13.434;2023-02-13T14:18:04;17.60;;;11.03;;
13588;SDS011;6865;52.552;13.434;2023-02-13T14:23:19;17.37;;;12.07;;
13588;SDS011;6865;52.552;13.434;2023-02-13T14:31:21;18.30;;;12.40;;
13588;SDS011;6865;52.552;13.434;2023-02-13T14:34:06;16.83;;;11.50;;
13588;SDS011;6865;52.552;13.434;2023-02-13T14:36:59;18.17;;;12.43;;
13588;SDS011;6865;52.552;13.434;2023-02-13T14:39:42;18.27;;;10.87;;
13588;SDS011;6865;52.552;13.434;2023-02-13T14:42:28;19.97;;;11.33;;
13588;SDS011;6865;52.552;13.434;2023-02-13T14:44:56;18.47;;;11.63;;
13588;SDS011;6865;52.552;13.434;2023-02-13T14:47:36;18.30;;;11.80;;
13588;SDS011;6865;52.552;13.434;2023-02-13T14:50:14;17.97;;;11.50;;
13588;SDS011;6865;52.552;13.434;2023-02-13T14:52:45;19.57;;;12.03;;
13588;SDS011;6865;52.552;13.434;2023-02-13T14:55:30;19.67;;;12.13;;
13588;SDS011;6865;52.552;13.434;2023-02-13T15:00:43;18.20;;;10.63;;
13588;SDS011;6865;52.552;13.434;2023-02-13T15:03:22;16.87;;;10.40;;
13588;SDS011;6865;52.552;13.434;2023-02-13T15:05:55;17.63;;;11.43;;
13588;SDS011;6865;52.552;13.434;2023-02-13T15:08:35;16.60;;;10.47;;
13588;SDS011;6865;52.552;13.434;2023-02-13T15:11:28;18.30;;;11.00;;
13588;SDS011;6865;52.552;13.434;2023-02-13T15:14:21;16.10;;;10.93;;
13588;SDS011;6865;52.552;13.434;2023-02-13T15:17:09;16.27;;;11.27;;
13588;SDS011;6865;52.552;13.434;2023-02-13T15:19:46;17.83;;;10.87;;
13588;SDS011;6865;52.552;13.434;2023-02-13T15:22:30;17.73;;;12.00;;
13588;SDS011;6865;52.552;13.434;2023-02-13T15:24:59;20.83;;;10.50;;
13588;SDS011;6865;52.552;13.434;2023-02-13T15:27:30;17.33;;;11.17;;
13588;SDS011;6865;52.552;13.434;2023-02-13T15:30:23;17.57;;;11.13;;
13588;SDS011;6865;52.552;13.434;2023-02-13T15:32:54;18.00;;;11.10;;
13588;SDS011;6865;52.552;13.434;2023-02-13T15:35:30;17.73;;;11.33;;
13588;SDS011;6865;52.552;13.434;2023-02-13T15:37:58;20.33;;;11.67;;
13588;SDS011;6865;52.552;13.434;2023-02-13T15:40:42;20.27;;;12.50;;
13588;SDS011;6865;52.552;13.434;2023-02-13T15:43:44;22.53;;;13.47;;
13588;SDS011;6865;52.552;13.434;2023-02-13T15:46:20;19.37;;;11.77;;
13588;SDS011;6865;52.552;13.434;2023-02-13T15:48:51;20.40;;;11.70;;
13588;SDS011;6865;52.552;13.434;2023-02-13T15:51:20;18.87;;;12.37;;
13588;SDS011;6865;52.552;13.434;2023-02-13T15:53:56;18.30;;;12.70;;
13588;SDS011;6865;52.552;13.434;2023-02-13T15:56:25;18.30;;;12.07;;
13588;SDS011;6865;52.552;13.434;2023-02-13T15:58:52;17.83;;;11.30;;
13588;SDS011;6865;52.552;13.434;2023-02-13T16:01:20;20.43;;;12.43;;
13588;SDS011;6865;52.552;13.434;2023-02-13T16:03:49;16.40;;;12.00;;
13588;SDS011;6865;52.552;13.434;2023-02-13T16:06:19;15.57;;;11.13;;
13588;SDS011;6865;52.552;13.434;2023-02-13T16:08:52;18.77;;;12.33;;
13588;SDS011;6865;52.552;13.434;2023-02-13T16:11:38;18.47;;;11.77;;
13588;SDS011;6865;52.552;13.434;2023-02-13T16:14:15;17.63;;;12.10;;
13588;SDS011;6865;52.552;13.434;2023-02-13T16:16:47;20.40;;;12.63;;
13588;SDS011;6865;52.552;13.434;2023-02-13T16:19:35;18.07;;;12.20;;
13588;SDS011;6865;52.552;13.434;2023-02-13T16:22:28;17.53;;;11.73;;
13588;SDS011;6865;52.552;13.434;2023-02-13T16:25:02;19.43;;;12.13;;
13588;SDS011;6865;52.552;13.434;2023-02-13T16:27:36;17.53;;;12.27;;
13588;SDS011;6865;52.552;13.434;2023-02-13T16:30:06;16.83;;;11.60;;
13588;SDS011;6865;52.552;13.434;2023-02-13T16:33:09;17.10;;;11.70;;